createdAt,value
2022-10-02T00:02:50.938Z,11.02
2022-10-02T00:05:31.993Z,10.45
2022-10-02T00:08:24.162Z,10.98
2022-10-02T00:11:18.477Z,10.10
2022-10-02T00:14:02.440Z,10.20
2022-10-02T00:16:43.406Z,11.07
2022-10-02T00:19:20.290Z,11.85
2022-10-02T00:22:01.775Z,10.82
2022-10-02T00:25:04.504Z,11.65
2022-10-02T00:28:01.252Z,11.43
2022-10-02T00:30:43.356Z,11.75
2022-10-02T00:33:40.719Z,11.52
2022-10-02T00:36:40.301Z,11.38
2022-10-02T00:39:59.727Z,12.88
2022-10-02T00:42:49.585Z,16.02
2022-10-02T00:45:53.987Z,19.10
2022-10-02T00:48:37.478Z,20.40
2022-10-02T00:51:16.593Z,21.40
2022-10-02T00:54:07.835Z,21.02
2022-10-02T00:56:46.448Z,19.47
2022-10-02T00:59:47.956Z,19.75
2022-10-02T01:02:38.449Z,19.15
2022-10-02T01:05:12.004Z,18.35
2022-10-02T01:07:48.660Z,16.00
2022-10-02T01:10:23.894Z,17.55
2022-10-02T01:12:58.601Z,15.98
2022-10-02T01:15:35.495Z,15.23
2022-10-02T01:18:09.232Z,14.80
2022-10-02T01:20:48.730Z,16.77
2022-10-02T01:23:23.828Z,15.55
2022-10-02T01:25:56.638Z,15.73
2022-10-02T01:28:29.984Z,15.13
2022-10-02T01:31:09.290Z,15.10
2022-10-02T01:33:44.200Z,13.95
2022-10-02T01:36:18.267Z,13.07
2022-10-02T01:38:53.734Z,12.13
2022-10-02T01:41:26.435Z,13.15
2022-10-02T01:44:03.521Z,18.23
2022-10-02T01:47:07.427Z,15.45
2022-10-02T01:49:49.089Z,12.95
2022-10-02T01:52:36.250Z,14.75
2022-10-02T01:55:17.814Z,12.35
2022-10-02T01:58:05.138Z,12.53
2022-10-02T02:00:58.213Z,20.30
2022-10-02T02:03:56.128Z,21.73
2022-10-02T02:07:11.296Z,20.58
2022-10-02T02:10:06.451Z,21.52
2022-10-02T02:12:58.329Z,15.52
2022-10-02T02:15:38.858Z,12.63
2022-10-02T02:18:11.323Z,11.52
2022-10-02T02:20:52.043Z,9.10
2022-10-02T02:23:31.548Z,8.13
2022-10-02T02:26:13.882Z,8.57
2022-10-02T02:28:58.443Z,8.07
2022-10-02T02:31:47.007Z,7.50
2022-10-02T02:34:25.141Z,6.85
2022-10-02T02:37:03.642Z,6.07
2022-10-02T02:39:54.645Z,7.70
2022-10-02T02:42:34.262Z,8.35
2022-10-02T02:45:16.587Z,10.55
2022-10-02T02:47:53.304Z,8.38
2022-10-02T02:50:44.931Z,9.23
2022-10-02T02:53:27.157Z,8.50
2022-10-02T02:58:37.419Z,7.75
2022-10-02T03:01:10.227Z,8.65
2022-10-02T03:03:42.866Z,9.40
2022-10-02T03:06:18.725Z,10.32
2022-10-02T03:08:53.330Z,11.05
2022-10-02T03:11:31.015Z,10.07
2022-10-02T03:14:31.449Z,11.75
2022-10-02T03:17:23.492Z,10.60
2022-10-02T03:20:02.388Z,10.15
2022-10-02T03:22:54.275Z,11.25
2022-10-02T03:25:39.914Z,10.20
2022-10-02T03:28:50.735Z,12.85
2022-10-02T03:31:22.214Z,11.77
2022-10-02T03:33:56.434Z,9.38
2022-10-02T03:36:29.211Z,10.40
2022-10-02T03:41:57.537Z,10.18
2022-10-02T03:44:30.375Z,9.43
2022-10-02T03:47:02.663Z,9.02
2022-10-02T03:49:35.338Z,7.93
2022-10-02T03:52:07.641Z,8.27
2022-10-02T03:54:40.288Z,8.70
2022-10-02T03:57:19.974Z,8.32
2022-10-02T03:59:58.236Z,8.60
2022-10-02T04:03:05.604Z,8.25
2022-10-02T04:05:56.986Z,8.60
2022-10-02T04:08:59.752Z,7.43
2022-10-02T04:11:51.613Z,7.22
2022-10-02T04:14:30.507Z,5.68
2022-10-02T04:17:10.748Z,7.28
2022-10-02T04:19:47.839Z,6.93
2022-10-02T04:22:47.512Z,6.97
2022-10-02T04:25:26.774Z,6.18
2022-10-02T04:28:16.230Z,6.40
2022-10-02T04:30:48.694Z,6.82
2022-10-02T04:33:24.203Z,6.78
2022-10-02T04:36:08.391Z,7.53
2022-10-02T04:39:00.269Z,6.32
2022-10-02T04:41:42.713Z,6.20
2022-10-02T04:44:33.733Z,5.35
2022-10-02T04:47:11.832Z,5.78
2022-10-02T04:50:09.010Z,5.85
2022-10-02T04:53:16.027Z,4.60
2022-10-02T04:56:20.376Z,4.78
2022-10-02T04:58:52.881Z,4.80
2022-10-02T05:01:43.460Z,4.57
2022-10-02T05:04:37.288Z,4.68
2022-10-02T05:07:37.348Z,4.60
2022-10-02T05:10:27.877Z,4.65
2022-10-02T05:13:09.190Z,4.10
2022-10-02T05:16:00.287Z,3.20
2022-10-02T05:18:55.213Z,3.95
2022-10-02T05:21:55.136Z,4.00
2022-10-02T05:24:43.598Z,3.42
2022-10-02T05:27:34.738Z,3.45
2022-10-02T05:30:25.515Z,3.47
2022-10-02T05:33:28.293Z,3.58
2022-10-02T05:36:37.558Z,3.55
2022-10-02T05:39:29.366Z,3.13
2022-10-02T05:42:20.582Z,3.45
2022-10-02T05:45:24.469Z,3.13
2022-10-02T05:48:14.262Z,2.65
2022-10-02T05:50:51.023Z,3.00
2022-10-02T05:54:01.246Z,2.80
2022-10-02T05:56:46.096Z,3.20
2022-10-02T05:59:44.146Z,2.30
2022-10-02T06:02:52.807Z,2.97
2022-10-02T06:05:41.045Z,2.25
2022-10-02T06:08:17.885Z,2.30
2022-10-02T06:11:00.700Z,2.03
2022-10-02T06:13:48.548Z,2.53
2022-10-02T06:16:30.160Z,1.70
2022-10-02T06:19:13.746Z,1.75
2022-10-02T06:21:55.527Z,2.25
2022-10-02T06:24:44.313Z,2.13
2022-10-02T06:27:45.999Z,1.80
2022-10-02T06:30:20.733Z,2.00
2022-10-02T06:33:01.403Z,1.98
2022-10-02T06:35:45.430Z,1.55
2022-10-02T06:38:37.095Z,1.65
2022-10-02T06:41:36.169Z,1.83
2022-10-02T06:44:09.552Z,1.70
2022-10-02T06:47:05.157Z,1.40
2022-10-02T06:49:53.591Z,1.75
2022-10-02T06:52:59.532Z,2.33
2022-10-02T06:55:50.828Z,1.70
2022-10-02T06:58:44.752Z,1.25
2022-10-02T07:01:31.963Z,1.63
2022-10-02T07:04:43.776Z,1.23
2022-10-02T07:07:24.437Z,1.60
2022-10-02T07:10:19.946Z,1.40
2022-10-02T07:13:04.526Z,1.40
2022-10-02T07:15:58.279Z,2.05
2022-10-02T07:18:52.053Z,1.40
2022-10-02T07:21:46.420Z,1.23
2022-10-02T07:24:50.601Z,1.30
2022-10-02T07:27:56.819Z,1.25
2022-10-02T07:30:39.193Z,1.02
2022-10-02T07:33:30.149Z,1.13
2022-10-02T07:36:29.344Z,0.95
2022-10-02T07:39:27.540Z,1.00
2022-10-02T07:42:31.731Z,1.13
2022-10-02T07:45:50.846Z,1.00
2022-10-02T07:48:46.034Z,1.33
2022-10-02T07:51:43.661Z,0.98
2022-10-02T07:54:36.884Z,0.73
2022-10-02T07:57:31.708Z,0.90
2022-10-02T08:00:19.493Z,0.90
2022-10-02T08:03:02.017Z,0.93
2022-10-02T08:05:46.220Z,1.45
2022-10-02T08:09:04.957Z,1.00
2022-10-02T08:11:49.511Z,0.90
2022-10-02T08:14:26.047Z,0.85
2022-10-02T08:17:04.457Z,1.00
2022-10-02T08:19:37.158Z,1.00
2022-10-02T08:22:45.101Z,0.80
2022-10-02T08:25:45.109Z,0.90
2022-10-02T08:28:43.957Z,1.00
2022-10-02T08:31:17.498Z,1.20
2022-10-02T08:33:49.877Z,0.82
2022-10-02T08:36:45.669Z,1.45
2022-10-02T08:39:26.392Z,0.85
2022-10-02T08:42:31.210Z,1.30
2022-10-02T08:45:35.530Z,1.30
2022-10-02T08:48:58.342Z,1.63
2022-10-02T08:52:03.093Z,1.83
2022-10-02T08:54:48.792Z,1.27
2022-10-02T08:57:51.187Z,1.42
2022-10-02T09:00:27.722Z,1.35
2022-10-02T09:03:31.573Z,1.27
2022-10-02T09:06:27.706Z,1.80
2022-10-02T09:09:20.159Z,1.05
2022-10-02T09:12:29.169Z,1.20
2022-10-02T09:15:41.495Z,1.00
2022-10-02T09:18:40.555Z,1.00
2022-10-02T09:21:56.381Z,1.10
2022-10-02T09:24:52.631Z,1.42
2022-10-02T09:27:44.186Z,1.10
2022-10-02T09:30:19.428Z,1.00
2022-10-02T09:33:13.792Z,1.15
2022-10-02T09:35:56.880Z,1.48
2022-10-02T09:38:53.327Z,1.33
2022-10-02T09:41:54.301Z,1.50
2022-10-02T09:45:02.262Z,2.97
2022-10-02T09:47:37.128Z,2.33
2022-10-02T09:50:27.406Z,2.33
2022-10-02T09:53:15.219Z,2.90
2022-10-02T09:55:56.484Z,3.42
2022-10-02T09:58:50.049Z,3.13
2022-10-02T10:02:01.581Z,3.50
2022-10-02T10:05:06.070Z,4.13
2022-10-02T10:07:54.187Z,3.92
2022-10-02T10:10:51.052Z,3.33
2022-10-02T10:13:35.123Z,3.58
2022-10-02T10:16:39.809Z,3.78
2022-10-02T10:19:46.838Z,2.67
2022-10-02T10:22:40.508Z,2.78
2022-10-02T10:25:44.346Z,3.50
2022-10-02T10:28:39.425Z,3.45
2022-10-02T10:31:23.542Z,3.05
2022-10-02T10:34:32.259Z,3.17
2022-10-02T10:37:57.381Z,3.47
2022-10-02T10:40:55.024Z,3.03
2022-10-02T10:44:03.996Z,3.65
2022-10-02T10:47:12.528Z,3.80
2022-10-02T10:50:03.935Z,3.40
2022-10-02T10:52:56.461Z,2.80
2022-10-02T10:55:47.678Z,3.38
2022-10-02T10:58:38.187Z,3.45
2022-10-02T11:01:21.795Z,4.00
2022-10-02T11:04:28.049Z,2.83
2022-10-02T11:07:25.234Z,3.03
2022-10-02T11:10:23.375Z,3.45
2022-10-02T11:13:25.312Z,2.63
2022-10-02T11:16:17.614Z,3.10
2022-10-02T11:19:36.838Z,3.17
2022-10-02T11:22:24.677Z,2.65
2022-10-02T11:25:16.613Z,3.13
2022-10-02T11:28:07.738Z,3.17
2022-10-02T11:30:56.510Z,3.17
2022-10-02T11:33:50.493Z,2.70
2022-10-02T11:36:45.609Z,4.00
2022-10-02T11:39:48.654Z,3.40
2022-10-02T11:42:38.885Z,3.25
2022-10-02T11:45:30.768Z,3.08
2022-10-02T11:48:40.670Z,2.80
2022-10-02T11:51:37.532Z,3.30
2022-10-02T11:54:21.541Z,3.88
2022-10-02T11:57:25.021Z,3.55
2022-10-02T12:00:10.153Z,3.33
2022-10-02T12:03:14.345Z,3.20
2022-10-02T12:08:46.026Z,3.28
2022-10-02T12:11:36.533Z,3.13
2022-10-02T12:14:30.347Z,2.95
2022-10-02T12:17:26.301Z,3.08
2022-10-02T12:20:43.372Z,2.90
2022-10-02T12:23:45.004Z,2.58
2022-10-02T12:27:11.248Z,3.20
2022-10-02T12:30:05.622Z,3.33
2022-10-02T12:33:05.634Z,4.03
2022-10-02T12:36:10.078Z,3.45
2022-10-02T12:38:54.099Z,3.72
2022-10-02T12:41:50.192Z,3.63
2022-10-02T12:44:57.910Z,3.88
2022-10-02T12:47:50.079Z,3.28
2022-10-02T12:50:42.933Z,2.38
2022-10-02T12:53:41.829Z,2.63
2022-10-02T12:56:57.360Z,2.55
2022-10-02T12:59:35.563Z,2.90
2022-10-02T13:02:59.256Z,3.35
2022-10-02T13:06:12.459Z,2.15
2022-10-02T13:08:56.612Z,2.17
2022-10-02T13:11:47.478Z,2.13
2022-10-02T13:14:47.242Z,2.83
2022-10-02T13:17:27.508Z,3.17
2022-10-02T13:20:06.615Z,3.13
2022-10-02T13:22:39.516Z,2.78
2022-10-02T13:25:28.509Z,3.28
2022-10-02T13:28:07.367Z,2.30
2022-10-02T13:30:54.030Z,2.58
2022-10-02T13:33:39.331Z,2.92
2022-10-02T13:36:14.661Z,2.25
2022-10-02T13:39:18.359Z,2.17
2022-10-02T13:42:34.726Z,2.10
2022-10-02T13:45:25.796Z,2.10
2022-10-02T13:48:21.650Z,2.35
2022-10-02T13:51:07.548Z,2.00
2022-10-02T13:54:02.064Z,1.83
2022-10-02T13:57:29.677Z,2.13
2022-10-02T14:00:26.586Z,3.10
2022-10-02T14:03:28.192Z,2.70
2022-10-02T14:06:37.868Z,1.67
2022-10-02T14:09:34.240Z,2.10
2022-10-02T14:12:30.931Z,1.80
2022-10-02T14:15:38.598Z,1.50
2022-10-02T14:18:53.443Z,1.58
2022-10-02T14:21:32.708Z,1.70
2022-10-02T14:24:27.516Z,1.52
2022-10-02T14:27:23.869Z,1.65
2022-10-02T14:30:22.145Z,1.25
2022-10-02T14:33:31.621Z,1.65
2022-10-02T14:36:29.961Z,1.90
2022-10-02T14:39:29.807Z,1.40
2022-10-02T14:42:30.180Z,1.63
2022-10-02T14:45:54.107Z,1.38
2022-10-02T14:48:53.288Z,1.30
2022-10-02T14:51:46.126Z,1.60
2022-10-02T14:54:39.037Z,1.60
2022-10-02T14:57:40.991Z,1.20
2022-10-02T15:00:21.661Z,1.30
2022-10-02T15:03:06.385Z,1.38
2022-10-02T15:05:48.536Z,1.13
2022-10-02T15:08:30.192Z,1.38
2022-10-02T15:11:04.638Z,1.42
2022-10-02T15:13:49.872Z,1.42
2022-10-02T15:16:46.604Z,1.30
2022-10-02T15:19:32.869Z,1.00
2022-10-02T15:22:37.370Z,1.00
2022-10-02T15:25:20.013Z,1.52
2022-10-02T15:28:31.212Z,1.25
2022-10-02T15:31:27.270Z,1.08
2022-10-02T15:34:23.791Z,1.13
2022-10-02T15:37:08.523Z,1.17
2022-10-02T15:39:43.889Z,1.30
2022-10-02T15:42:40.463Z,1.40
2022-10-02T15:45:42.932Z,1.40
2022-10-02T15:48:21.497Z,1.05
2022-10-02T15:51:23.741Z,1.23
2022-10-02T15:54:13.106Z,0.98
2022-10-02T15:56:56.959Z,1.20
2022-10-02T15:59:47.337Z,1.15
2022-10-02T16:02:37.956Z,1.30
2022-10-02T16:05:22.712Z,1.00
2022-10-02T16:08:14.687Z,1.00
2022-10-02T16:11:08.125Z,1.02
2022-10-02T16:14:30.832Z,1.08
2022-10-02T16:17:25.995Z,1.38
2022-10-02T16:20:38.552Z,1.20
2022-10-02T16:23:32.465Z,1.13
2022-10-02T16:26:22.511Z,1.52
2022-10-02T16:29:04.042Z,1.45
2022-10-02T16:31:56.899Z,1.20
2022-10-02T16:34:46.911Z,1.30
2022-10-02T16:37:26.072Z,1.63
2022-10-02T16:40:02.577Z,1.40
2022-10-02T16:42:37.636Z,1.42
2022-10-02T16:45:38.055Z,1.40
2022-10-02T16:48:16.682Z,1.40
2022-10-02T16:51:06.737Z,1.08
2022-10-02T16:53:44.800Z,1.30
2022-10-02T16:56:32.533Z,1.30
2022-10-02T16:59:16.059Z,1.17
2022-10-02T17:02:25.041Z,1.35
2022-10-02T17:05:10.933Z,1.27
2022-10-02T17:07:58.533Z,1.30
2022-10-02T17:10:48.563Z,1.63
2022-10-02T17:13:27.796Z,1.15
2022-10-02T17:16:05.395Z,1.30
2022-10-02T17:19:00.803Z,1.23
2022-10-02T17:21:48.027Z,1.20
2022-10-02T17:24:44.769Z,1.30
2022-10-02T17:27:37.520Z,1.10
2022-10-02T17:30:28.671Z,1.25
2022-10-02T17:33:17.805Z,1.40
2022-10-02T17:35:58.770Z,1.52
2022-10-02T17:39:07.572Z,1.40
2022-10-02T17:42:21.668Z,1.30
2022-10-02T17:45:20.179Z,1.80
2022-10-02T17:48:03.917Z,1.50
2022-10-02T17:50:55.814Z,1.50
2022-10-02T17:54:17.470Z,1.80
2022-10-02T17:57:15.654Z,1.35
2022-10-02T18:00:22.066Z,1.63
2022-10-02T18:03:11.490Z,1.40
2022-10-02T18:06:15.873Z,1.58
2022-10-02T18:09:22.950Z,1.52
2022-10-02T18:12:13.363Z,1.65
2022-10-02T18:14:54.069Z,1.48
2022-10-02T18:17:44.438Z,1.40
2022-10-02T18:20:35.669Z,1.40
2022-10-02T18:23:26.719Z,1.10
2022-10-02T18:26:35.928Z,1.55
2022-10-02T18:29:08.230Z,1.50
2022-10-02T18:32:14.842Z,1.10
2022-10-02T18:35:11.604Z,1.25
2022-10-02T18:38:01.894Z,1.50
2022-10-02T18:40:54.701Z,1.40
2022-10-02T18:44:35.930Z,1.23
2022-10-02T18:47:14.435Z,1.05
2022-10-02T18:50:10.525Z,1.17
2022-10-02T18:52:52.380Z,1.23
2022-10-02T18:55:45.685Z,1.42
2022-10-02T18:58:33.229Z,1.40
2022-10-02T19:01:22.498Z,1.42
2022-10-02T19:04:32.221Z,1.10
2022-10-02T19:07:28.828Z,1.45
2022-10-02T19:10:23.324Z,1.50
2022-10-02T19:13:31.585Z,1.40
2022-10-02T19:16:24.414Z,1.33
2022-10-02T19:19:28.113Z,1.42
2022-10-02T19:22:11.566Z,0.98
2022-10-02T19:24:46.152Z,1.30
2022-10-02T19:27:35.231Z,1.50
2022-10-02T19:30:09.941Z,1.23
2022-10-02T19:32:44.092Z,1.17
2022-10-02T19:35:31.003Z,0.98
2022-10-02T19:38:15.844Z,1.45
2022-10-02T19:40:54.894Z,1.20
2022-10-02T19:43:35.793Z,1.25
2022-10-02T19:46:11.938Z,1.48
2022-10-02T19:48:45.385Z,1.52
2022-10-02T19:51:23.122Z,1.23
2022-10-02T19:53:58.735Z,1.27
2022-10-02T19:56:45.494Z,1.00
2022-10-02T19:59:25.652Z,1.10
2022-10-02T20:02:02.831Z,1.00
2022-10-02T20:04:35.199Z,1.10
2022-10-02T20:07:07.718Z,1.35
2022-10-02T20:09:55.120Z,1.08
2022-10-02T20:12:34.885Z,1.30
2022-10-02T20:15:17.660Z,1.27
2022-10-02T20:20:22.270Z,1.43
2022-10-02T20:23:00.336Z,1.30
2022-10-02T20:26:00.225Z,1.50
2022-10-02T20:28:59.814Z,1.17
2022-10-02T20:31:44.956Z,1.45
2022-10-02T20:34:29.174Z,1.30
2022-10-02T20:37:07.385Z,1.33
2022-10-02T20:40:00.032Z,1.42
2022-10-02T20:43:03.878Z,1.20
2022-10-02T20:45:47.445Z,1.63
2022-10-02T20:49:08.342Z,1.30
2022-10-02T20:52:10.141Z,1.45
2022-10-02T20:55:00.642Z,1.98
2022-10-02T21:00:55.521Z,1.90
2022-10-02T21:03:33.628Z,1.95
2022-10-02T21:06:44.433Z,1.48
2022-10-02T21:09:38.188Z,1.70
2022-10-02T21:12:39.500Z,1.70
2022-10-02T21:15:20.585Z,1.85
2022-10-02T21:18:31.710Z,1.50
2022-10-02T21:21:31.589Z,1.92
2022-10-02T21:24:06.577Z,1.67
2022-10-02T21:26:50.724Z,1.67
2022-10-02T21:29:44.319Z,2.00
2022-10-02T21:32:50.887Z,1.80
2022-10-02T21:35:51.321Z,1.77
2022-10-02T21:38:54.419Z,1.90
2022-10-02T21:42:08.779Z,1.50
2022-10-02T21:45:30.315Z,1.83
2022-10-02T21:48:14.800Z,2.20
2022-10-02T21:50:52.914Z,2.10
2022-10-02T21:53:52.604Z,2.33
2022-10-02T21:56:39.654Z,1.65
2022-10-02T21:59:42.243Z,1.90
2022-10-02T22:02:39.890Z,2.33
2022-10-02T22:05:33.130Z,1.80
2022-10-02T22:08:22.748Z,1.67
2022-10-02T22:11:18.476Z,1.83
2022-10-02T22:13:54.773Z,2.03
2022-10-02T22:16:37.731Z,1.70
2022-10-02T22:19:09.963Z,2.08
2022-10-02T22:22:13.352Z,1.75
2022-10-02T22:25:05.587Z,2.10
2022-10-02T22:27:47.223Z,1.92
2022-10-02T22:30:37.838Z,1.60
2022-10-02T22:33:33.282Z,1.73
2022-10-02T22:36:58.848Z,1.95
2022-10-02T22:39:35.532Z,1.58
2022-10-02T22:42:16.404Z,2.35
2022-10-02T22:45:04.198Z,1.92
2022-10-02T22:48:06.650Z,2.00
2022-10-02T22:53:58.047Z,2.13
2022-10-02T22:56:42.273Z,2.17
2022-10-02T22:59:19.858Z,2.40
2022-10-02T23:02:06.008Z,2.92
2022-10-02T23:05:23.812Z,2.80
2022-10-02T23:08:17.083Z,2.45
2022-10-02T23:11:16.999Z,2.67
2022-10-02T23:13:51.740Z,2.45
2022-10-02T23:16:24.294Z,2.40
2022-10-02T23:19:05.538Z,2.95
2022-10-02T23:21:52.442Z,1.97
2022-10-02T23:24:32.594Z,2.30
2022-10-02T23:27:04.902Z,2.58
2022-10-02T23:29:46.425Z,3.58
2022-10-02T23:32:48.184Z,3.97
2022-10-02T23:35:58.613Z,5.23
2022-10-02T23:38:46.136Z,5.18
2022-10-02T23:41:49.775Z,6.95
2022-10-02T23:44:43.741Z,15.43
2022-10-02T23:47:39.029Z,42.00
2022-10-02T23:50:52.406Z,51.83
2022-10-02T23:53:48.195Z,47.80
2022-10-02T23:56:38.513Z,42.78
2022-10-02T23:59:44.851Z,36.72
